createdAt,value
2019-04-25T00:00:44.231Z,0.00
2019-04-25T00:01:44.663Z,0.00
2019-04-25T00:02:44.736Z,0.00
2019-04-25T00:03:44.672Z,0.00
2019-04-25T00:04:44.632Z,0.00
2019-04-25T00:05:43.765Z,0.00
2019-04-25T00:06:44.012Z,0.00
2019-04-25T00:07:43.940Z,0.00
2019-04-25T00:08:44.133Z,0.00
2019-04-25T00:09:44.063Z,0.00
2019-04-25T00:10:43.903Z,0.00
2019-04-25T00:11:46.624Z,0.00
2019-04-25T00:12:44.543Z,0.00
2019-04-25T00:13:44.075Z,0.00
2019-04-25T00:14:43.792Z,0.00
2019-04-25T00:15:44.933Z,0.00
2019-04-25T00:16:44.158Z,0.00
2019-04-25T00:17:44.329Z,0.00
2019-04-25T00:18:44.229Z,0.00
2019-04-25T00:19:44.158Z,0.00
2019-04-25T00:20:43.683Z,0.00
2019-04-25T00:21:43.466Z,0.00
2019-04-25T00:22:43.720Z,0.00
2019-04-25T00:23:43.772Z,0.00
2019-04-25T00:24:44.123Z,0.00
2019-04-25T00:25:46.760Z,0.00
2019-04-25T00:26:44.996Z,0.00
2019-04-25T00:27:44.825Z,0.00
2019-04-25T00:28:44.406Z,0.00
2019-04-25T00:29:44.508Z,0.00
2019-04-25T00:30:44.468Z,0.00
2019-04-25T00:31:43.817Z,0.00
2019-04-25T00:32:44.191Z,0.00
2019-04-25T00:33:44.186Z,0.00
2019-04-25T00:34:44.487Z,0.00
2019-04-25T00:35:44.568Z,0.00
2019-04-25T00:36:45.357Z,0.00
2019-04-25T00:37:45.105Z,0.00
2019-04-25T00:38:46.272Z,0.00
2019-04-25T00:39:44.883Z,0.00
2019-04-25T00:40:43.950Z,0.00
2019-04-25T00:41:45.145Z,0.00
2019-04-25T00:42:44.687Z,0.00
2019-04-25T00:43:44.040Z,0.00
2019-04-25T00:44:44.796Z,0.00
2019-04-25T00:45:44.323Z,0.00
2019-04-25T00:46:46.393Z,0.00
2019-04-25T00:47:43.867Z,0.00
2019-04-25T00:48:43.436Z,0.00
2019-04-25T00:49:44.196Z,0.00
2019-04-25T00:50:43.646Z,0.00
2019-04-25T00:51:43.836Z,0.00
2019-04-25T00:52:43.925Z,0.00
2019-04-25T00:53:43.732Z,0.00
2019-04-25T00:54:43.172Z,0.00
2019-04-25T00:55:43.145Z,0.00
2019-04-25T00:56:45.789Z,0.00
2019-04-25T00:57:43.612Z,0.00
2019-04-25T00:58:43.983Z,0.00
2019-04-25T00:59:43.894Z,0.00
2019-04-25T01:00:43.439Z,0.00
2019-04-25T01:01:44.212Z,0.00
2019-04-25T01:02:44.077Z,0.00
2019-04-25T01:03:44.112Z,0.00
2019-04-25T01:04:43.740Z,0.00
2019-04-25T01:05:44.406Z,0.00
2019-04-25T01:06:43.931Z,0.00
2019-04-25T01:07:44.245Z,0.00
2019-04-25T01:08:43.359Z,0.00
2019-04-25T01:09:42.537Z,0.00
2019-04-25T01:10:42.524Z,0.00
2019-04-25T01:11:42.542Z,0.00
2019-04-25T01:12:42.482Z,0.00
2019-04-25T01:13:42.463Z,0.00
2019-04-25T01:14:42.442Z,0.00
2019-04-25T01:15:42.589Z,0.00
2019-04-25T01:16:42.408Z,0.00
2019-04-25T01:17:42.384Z,0.00
2019-04-25T01:18:43.651Z,0.00
2019-04-25T01:19:44.037Z,0.00
2019-04-25T01:20:43.440Z,0.00
2019-04-25T01:21:43.904Z,0.00
2019-04-25T01:22:43.987Z,0.00
2019-04-25T01:23:43.469Z,0.00
2019-04-25T01:24:43.858Z,0.00
2019-04-25T01:25:44.295Z,0.00
2019-04-25T01:26:43.749Z,0.00
2019-04-25T01:27:43.308Z,0.00
2019-04-25T01:28:43.845Z,0.00
2019-04-25T01:29:42.151Z,0.00
2019-04-25T01:30:43.803Z,0.00
2019-04-25T01:31:43.450Z,0.00
2019-04-25T01:32:44.640Z,0.00
2019-04-25T01:33:43.345Z,0.00
2019-04-25T01:34:42.055Z,0.00
2019-04-25T01:35:43.091Z,0.00
2019-04-25T01:36:42.023Z,0.00
2019-04-25T01:37:43.719Z,0.00
2019-04-25T01:38:43.306Z,0.00
2019-04-25T01:39:41.959Z,0.00
2019-04-25T01:40:43.481Z,0.00
2019-04-25T01:41:41.920Z,0.00
2019-04-25T01:42:43.725Z,0.00
2019-04-25T01:43:43.639Z,0.00
2019-04-25T01:44:41.861Z,0.00
2019-04-25T01:45:41.843Z,0.00
2019-04-25T01:46:41.826Z,0.00
2019-04-25T01:47:43.426Z,0.00
2019-04-25T01:48:43.267Z,0.00
2019-04-25T01:49:41.764Z,0.00
2019-04-25T01:50:43.639Z,0.00
2019-04-25T01:51:41.725Z,0.00
2019-04-25T01:52:43.353Z,0.00
2019-04-25T01:53:41.687Z,0.00
2019-04-25T01:54:41.665Z,0.00
2019-04-25T01:55:53.005Z,0.00
2019-04-25T01:56:41.628Z,0.00
2019-04-25T01:57:41.607Z,0.00
2019-04-25T01:58:41.588Z,0.00
2019-04-25T01:59:41.580Z,0.00
2019-04-25T02:00:43.154Z,0.00
2019-04-25T02:01:41.528Z,0.00
2019-04-25T02:02:41.513Z,0.00
2019-04-25T02:03:41.498Z,0.00
2019-04-25T02:04:41.476Z,0.00
2019-04-25T02:05:41.456Z,0.00
2019-04-25T02:06:41.432Z,0.00
2019-04-25T02:07:41.411Z,0.00
2019-04-25T02:08:41.395Z,0.00
2019-04-25T02:09:41.373Z,0.00
2019-04-25T02:10:41.357Z,0.00
2019-04-25T02:11:41.334Z,0.00
2019-04-25T02:12:41.314Z,0.00
2019-04-25T02:13:41.294Z,0.00
2019-04-25T02:14:41.276Z,0.00
2019-04-25T02:15:41.258Z,0.00
2019-04-25T02:16:41.236Z,0.00
2019-04-25T02:17:41.225Z,0.00
2019-04-25T02:18:41.197Z,0.00
2019-04-25T02:19:41.177Z,0.00
2019-04-25T02:20:41.158Z,0.00
2019-04-25T02:21:41.137Z,0.00
2019-04-25T02:22:41.128Z,0.00
2019-04-25T02:23:41.098Z,0.00
2019-04-25T02:24:41.080Z,0.00
2019-04-25T02:25:41.059Z,0.00
2019-04-25T02:26:41.040Z,0.00
2019-04-25T02:27:41.019Z,0.00
2019-04-25T02:28:40.998Z,0.00
2019-04-25T02:29:40.979Z,0.00
2019-04-25T02:30:40.964Z,0.00
2019-04-25T02:31:40.940Z,0.00
2019-04-25T02:32:40.920Z,0.00
2019-04-25T02:33:40.902Z,0.00
2019-04-25T02:34:40.884Z,0.00
2019-04-25T02:35:43.214Z,0.00
2019-04-25T02:36:40.841Z,0.00
2019-04-25T02:37:40.822Z,0.00
2019-04-25T02:38:40.804Z,0.00
2019-04-25T02:39:40.792Z,0.00
2019-04-25T02:40:40.767Z,0.00
2019-04-25T02:41:40.745Z,0.00
2019-04-25T02:42:40.724Z,0.00
2019-04-25T02:43:40.710Z,0.00
2019-04-25T02:44:40.699Z,0.00
2019-04-25T02:45:40.664Z,0.00
2019-04-25T02:46:40.645Z,0.00
2019-04-25T02:47:40.628Z,0.00
2019-04-25T02:48:40.606Z,0.00
2019-04-25T02:49:40.599Z,0.00
2019-04-25T02:50:40.571Z,0.00
2019-04-25T02:51:40.549Z,0.00
2019-04-25T02:52:40.528Z,0.00
2019-04-25T02:53:40.505Z,0.00
2019-04-25T02:54:40.500Z,0.00
2019-04-25T02:55:40.468Z,0.00
2019-04-25T02:56:40.449Z,0.00
2019-04-25T02:57:40.426Z,0.00
2019-04-25T02:58:40.406Z,0.00
2019-04-25T02:59:40.390Z,0.00
2019-04-25T03:00:54.965Z,0.00
2019-04-25T03:01:40.349Z,0.00
2019-04-25T03:02:40.343Z,0.00
2019-04-25T03:03:40.309Z,0.00
2019-04-25T03:04:40.290Z,0.00
2019-04-25T03:05:40.309Z,0.00
2019-04-25T03:06:40.259Z,0.00
2019-04-25T03:07:40.229Z,0.00
2019-04-25T03:08:40.213Z,0.00
2019-04-25T03:09:40.191Z,0.00
2019-04-25T03:10:40.171Z,0.00
2019-04-25T03:11:40.148Z,0.00
2019-04-25T03:12:40.148Z,0.00
2019-04-25T03:13:40.110Z,0.00
2019-04-25T03:14:40.091Z,0.00
2019-04-25T03:15:40.078Z,0.00
2019-04-25T03:16:40.056Z,0.00
2019-04-25T03:17:40.031Z,0.00
2019-04-25T03:18:40.011Z,0.00
2019-04-25T03:19:39.990Z,0.00
2019-04-25T03:20:39.972Z,0.00
2019-04-25T03:21:39.955Z,0.00
2019-04-25T03:22:39.931Z,0.00
2019-04-25T03:23:42.602Z,0.00
2019-04-25T03:24:39.894Z,0.00
2019-04-25T03:25:39.869Z,0.00
2019-04-25T03:26:40.745Z,0.00
2019-04-25T03:27:39.832Z,0.00
2019-04-25T03:28:39.810Z,0.00
2019-04-25T03:29:39.791Z,0.00
2019-04-25T03:30:39.773Z,0.00
2019-04-25T03:31:39.754Z,0.00
2019-04-25T03:32:39.739Z,0.00
2019-04-25T03:33:39.713Z,0.00
2019-04-25T03:34:39.691Z,0.00
2019-04-25T03:35:39.679Z,0.00
2019-04-25T03:36:39.653Z,0.00
2019-04-25T03:37:39.632Z,0.00
2019-04-25T03:38:39.613Z,0.00
2019-04-25T03:39:39.593Z,0.00
2019-04-25T03:40:39.573Z,0.00
2019-04-25T03:41:39.555Z,0.00
2019-04-25T03:42:39.534Z,0.00
2019-04-25T03:43:39.514Z,0.00
2019-04-25T03:44:39.498Z,0.00
2019-04-25T03:45:39.474Z,0.00
2019-04-25T03:46:39.455Z,0.00
2019-04-25T03:47:39.435Z,0.00
2019-04-25T03:48:39.421Z,0.00
2019-04-25T03:49:39.394Z,0.00
2019-04-25T03:50:39.376Z,0.00
2019-04-25T03:51:39.357Z,0.00
2019-04-25T03:52:39.338Z,0.00
2019-04-25T03:53:39.314Z,0.00
2019-04-25T03:54:39.295Z,0.00
2019-04-25T03:55:39.292Z,0.00
2019-04-25T03:56:49.934Z,0.00
2019-04-25T03:57:39.235Z,0.00
2019-04-25T03:58:39.231Z,0.00
2019-04-25T03:59:39.205Z,0.00
2019-04-25T04:00:39.177Z,0.00
2019-04-25T04:01:39.155Z,0.00
2019-04-25T04:02:39.145Z,0.00
2019-04-25T04:03:39.115Z,0.00
2019-04-25T04:04:39.094Z,0.00
2019-04-25T04:05:39.083Z,0.00
2019-04-25T04:06:39.066Z,0.00
2019-04-25T04:07:39.046Z,0.00
2019-04-25T04:08:39.016Z,0.00
2019-04-25T04:09:38.994Z,0.00
2019-04-25T04:10:38.975Z,0.00
2019-04-25T04:11:38.959Z,0.00
2019-04-25T04:12:38.940Z,0.00
2019-04-25T04:13:38.918Z,0.00
2019-04-25T04:14:38.897Z,0.00
2019-04-25T04:15:38.876Z,0.00
2019-04-25T04:16:38.863Z,0.00
2019-04-25T04:17:38.838Z,0.00
2019-04-25T04:18:38.816Z,0.00
2019-04-25T04:19:38.799Z,0.00
2019-04-25T04:20:38.783Z,0.00
2019-04-25T04:21:38.756Z,0.00
2019-04-25T04:22:38.735Z,0.00
2019-04-25T04:23:38.716Z,0.00
2019-04-25T04:24:38.696Z,0.00
2019-04-25T04:25:38.677Z,0.00
2019-04-25T04:26:38.655Z,0.00
2019-04-25T04:27:38.637Z,0.00
2019-04-25T04:28:38.618Z,0.00
2019-04-25T04:29:38.595Z,0.00
2019-04-25T04:30:38.576Z,0.00
2019-04-25T04:31:38.556Z,0.00
2019-04-25T04:32:38.541Z,0.00
2019-04-25T04:33:38.516Z,0.00
2019-04-25T04:34:38.496Z,0.00
2019-04-25T04:35:38.478Z,0.00
2019-04-25T04:36:38.457Z,0.00
2019-04-25T04:37:38.443Z,0.00
2019-04-25T04:38:38.434Z,0.00
2019-04-25T04:39:38.396Z,0.00
2019-04-25T04:40:38.376Z,0.00
2019-04-25T04:41:38.363Z,0.00
2019-04-25T04:42:38.337Z,0.00
2019-04-25T04:43:38.317Z,0.00
2019-04-25T04:44:38.297Z,0.00
2019-04-25T04:45:38.275Z,0.00
2019-04-25T04:46:38.259Z,0.00
2019-04-25T04:47:38.237Z,0.00
2019-04-25T04:48:38.218Z,0.00
2019-04-25T04:49:38.200Z,0.00
2019-04-25T04:50:38.177Z,0.00
2019-04-25T04:51:38.158Z,0.00
2019-04-25T04:52:38.139Z,0.00
2019-04-25T04:53:38.116Z,0.00
2019-04-25T04:54:38.096Z,0.00
2019-04-25T04:55:38.076Z,0.00
2019-04-25T04:56:38.067Z,0.00
2019-04-25T04:57:38.035Z,0.00
2019-04-25T04:58:38.023Z,0.00
2019-04-25T04:59:37.998Z,0.00
2019-04-25T05:00:37.977Z,0.00
2019-04-25T05:01:37.958Z,0.00
2019-04-25T05:02:37.941Z,0.00
2019-04-25T05:03:37.917Z,0.00
2019-04-25T05:04:37.899Z,0.00
2019-04-25T05:05:37.877Z,0.00
2019-04-25T05:06:37.857Z,0.00
2019-04-25T05:07:37.843Z,0.00
2019-04-25T05:08:37.818Z,0.00
2019-04-25T05:09:37.795Z,0.00
2019-04-25T05:10:37.776Z,0.00
2019-04-25T05:11:37.767Z,0.00
2019-04-25T05:12:37.740Z,0.00
2019-04-25T05:13:37.716Z,0.00
2019-04-25T05:14:37.695Z,0.00
2019-04-25T05:15:37.680Z,0.00
2019-04-25T05:16:37.658Z,0.00
2019-04-25T05:17:37.638Z,0.00
2019-04-25T05:18:39.982Z,0.00
2019-04-25T05:19:37.596Z,0.00
2019-04-25T05:20:37.586Z,0.00
2019-04-25T05:21:37.565Z,0.00
2019-04-25T05:22:37.537Z,0.00
2019-04-25T05:23:37.521Z,0.00
2019-04-25T05:24:37.498Z,0.00
2019-04-25T05:25:37.480Z,0.00
2019-04-25T05:26:37.456Z,0.00
2019-04-25T05:27:50.800Z,0.00
2019-04-25T05:28:37.418Z,0.00
2019-04-25T05:29:37.396Z,0.00
2019-04-25T05:30:37.379Z,0.00
2019-04-25T05:31:37.362Z,0.00
2019-04-25T05:32:37.358Z,5.63
2019-04-25T05:33:37.317Z,5.63
2019-04-25T05:34:37.304Z,5.63
2019-04-25T05:35:37.279Z,5.63
2019-04-25T05:36:37.256Z,5.63
2019-04-25T05:37:37.251Z,5.63
2019-04-25T05:38:37.217Z,5.63
2019-04-25T05:39:37.199Z,5.63
2019-04-25T05:40:37.177Z,5.63
2019-04-25T05:41:37.157Z,5.63
2019-04-25T05:42:37.139Z,5.63
2019-04-25T05:43:37.117Z,5.63
2019-04-25T05:44:37.098Z,5.63
2019-04-25T05:45:37.081Z,5.63
2019-04-25T05:46:37.058Z,5.63
2019-04-25T05:47:37.037Z,5.63
2019-04-25T05:48:37.018Z,5.63
2019-04-25T05:49:37.003Z,5.63
2019-04-25T05:50:36.981Z,5.63
2019-04-25T05:51:36.963Z,5.63
2019-04-25T05:52:36.946Z,5.63
2019-04-25T05:53:36.919Z,5.63
2019-04-25T05:54:36.921Z,5.63
2019-04-25T05:55:36.880Z,11.25
2019-04-25T05:56:36.867Z,11.25
2019-04-25T05:57:45.517Z,11.25
2019-04-25T05:58:36.823Z,11.25
2019-04-25T05:59:36.799Z,11.25
2019-04-25T06:00:36.791Z,11.25
2019-04-25T06:01:36.760Z,11.25
2019-04-25T06:02:36.747Z,11.25
2019-04-25T06:03:36.745Z,11.25
2019-04-25T06:04:36.707Z,11.25
2019-04-25T06:05:36.676Z,11.25
2019-04-25T06:06:36.956Z,11.25
2019-04-25T06:07:36.640Z,11.25
2019-04-25T06:08:36.621Z,11.25
2019-04-25T06:09:36.610Z,11.25
2019-04-25T06:10:36.582Z,11.25
2019-04-25T06:11:36.562Z,5.63
2019-04-25T06:12:36.576Z,5.63
2019-04-25T06:13:36.520Z,5.63
2019-04-25T06:14:36.500Z,5.63
2019-04-25T06:15:36.481Z,5.63
2019-04-25T06:16:36.470Z,5.63
2019-04-25T06:17:36.452Z,5.63
2019-04-25T06:18:36.421Z,5.63
2019-04-25T06:19:36.401Z,5.63
2019-04-25T06:20:36.389Z,5.63
2019-04-25T06:21:36.362Z,5.63
2019-04-25T06:22:36.345Z,5.63
2019-04-25T06:23:36.321Z,5.63
2019-04-25T06:24:36.301Z,5.63
2019-04-25T06:25:39.773Z,5.63
2019-04-25T06:26:39.734Z,5.63
2019-04-25T06:27:36.244Z,11.25
2019-04-25T06:28:36.223Z,11.25
2019-04-25T06:29:36.203Z,11.25
2019-04-25T06:30:36.183Z,11.25
2019-04-25T06:31:36.165Z,16.88
2019-04-25T06:32:36.145Z,16.88
2019-04-25T06:33:36.171Z,16.88
2019-04-25T06:34:36.527Z,16.88
2019-04-25T06:35:36.089Z,16.88
2019-04-25T06:36:36.065Z,16.88
2019-04-25T06:37:36.045Z,16.88
2019-04-25T06:38:36.026Z,16.88
2019-04-25T06:39:36.006Z,16.88
2019-04-25T06:40:35.988Z,16.88
2019-04-25T06:41:35.967Z,16.88
2019-04-25T06:42:35.948Z,16.88
2019-04-25T06:43:35.930Z,16.88
2019-04-25T06:44:35.908Z,16.88
2019-04-25T06:45:35.887Z,16.88
2019-04-25T06:46:35.873Z,16.88
2019-04-25T06:47:35.848Z,16.88
2019-04-25T06:48:35.829Z,22.50
2019-04-25T06:49:37.317Z,16.88
2019-04-25T06:50:35.797Z,16.88
2019-04-25T06:51:35.778Z,22.50
2019-04-25T06:52:35.754Z,16.88
2019-04-25T06:53:35.734Z,22.50
2019-04-25T06:54:35.718Z,22.50
2019-04-25T06:55:35.695Z,22.50
2019-04-25T06:56:35.674Z,22.50
2019-04-25T06:57:35.656Z,22.50
2019-04-25T06:58:35.635Z,22.50
2019-04-25T06:59:38.657Z,22.50
2019-04-25T07:00:41.181Z,22.50
2019-04-25T07:01:35.586Z,22.50
2019-04-25T07:02:35.565Z,22.50
2019-04-25T07:03:35.819Z,22.50
2019-04-25T07:04:35.519Z,22.50
2019-04-25T07:05:40.245Z,22.50
2019-04-25T07:06:35.488Z,22.50
2019-04-25T07:07:35.461Z,22.50
2019-04-25T07:08:35.611Z,22.50
2019-04-25T07:09:36.089Z,22.50
2019-04-25T07:10:35.405Z,22.50
2019-04-25T07:11:35.841Z,22.50
2019-04-25T07:12:36.027Z,28.13
2019-04-25T07:13:38.566Z,28.13
2019-04-25T07:14:36.860Z,28.13
2019-04-25T07:15:35.383Z,28.13
2019-04-25T07:16:35.294Z,28.13
2019-04-25T07:17:35.981Z,28.13
2019-04-25T07:18:37.221Z,28.13
2019-04-25T07:19:35.574Z,22.50
2019-04-25T07:20:35.522Z,28.13
2019-04-25T07:21:35.614Z,28.13
2019-04-25T07:22:36.181Z,33.75
2019-04-25T07:23:35.832Z,28.13
2019-04-25T07:24:35.378Z,22.50
2019-04-25T07:25:35.836Z,28.13
2019-04-25T07:26:39.458Z,28.13
2019-04-25T07:27:35.626Z,22.50
2019-04-25T07:28:36.091Z,28.13
2019-04-25T07:29:35.702Z,28.13
2019-04-25T07:30:48.357Z,28.13
2019-04-25T07:31:35.690Z,28.13
2019-04-25T07:32:35.772Z,28.13
2019-04-25T07:33:35.871Z,28.13
2019-04-25T07:34:35.138Z,28.13
2019-04-25T07:35:35.717Z,22.50
2019-04-25T07:36:36.168Z,22.50
2019-04-25T07:37:37.166Z,45.00
2019-04-25T07:38:35.047Z,33.75
2019-04-25T07:39:35.570Z,39.38
2019-04-25T07:40:35.018Z,39.38
2019-04-25T07:41:37.140Z,45.00
2019-04-25T07:42:35.447Z,39.38
2019-04-25T07:43:35.383Z,45.00
2019-04-25T07:44:47.855Z,39.38
2019-04-25T07:45:36.162Z,45.00
2019-04-25T07:46:39.277Z,39.38
2019-04-25T07:47:35.494Z,39.38
2019-04-25T07:48:37.151Z,45.00
2019-04-25T07:49:34.852Z,45.00
2019-04-25T07:50:35.411Z,45.00
2019-04-25T07:51:35.511Z,39.38
2019-04-25T07:52:35.688Z,50.63
2019-04-25T07:53:35.904Z,45.00
2019-04-25T07:54:35.488Z,56.25
2019-04-25T07:55:36.348Z,45.00
2019-04-25T07:56:35.552Z,50.63
2019-04-25T07:57:35.610Z,39.38
2019-04-25T07:58:45.422Z,39.38
2019-04-25T07:59:35.358Z,45.00
2019-04-25T08:00:35.498Z,39.38
2019-04-25T08:01:37.278Z,50.63
2019-04-25T08:02:35.056Z,45.00
2019-04-25T08:03:35.282Z,45.00
2019-04-25T08:04:35.837Z,45.00
2019-04-25T08:05:35.679Z,33.75
2019-04-25T08:06:34.560Z,22.50
2019-04-25T08:07:35.276Z,22.50
2019-04-25T08:08:34.990Z,22.50
2019-04-25T08:09:35.738Z,22.50
2019-04-25T08:10:34.678Z,28.13
2019-04-25T08:11:35.095Z,28.13
2019-04-25T08:12:35.452Z,39.38
2019-04-25T08:13:35.080Z,33.75
2019-04-25T08:14:35.101Z,33.75
2019-04-25T08:15:34.979Z,33.75
2019-04-25T08:16:34.790Z,28.13
2019-04-25T08:17:34.657Z,33.75
2019-04-25T08:18:35.122Z,39.38
2019-04-25T08:19:34.691Z,45.00
2019-04-25T08:20:34.801Z,45.00
2019-04-25T08:21:35.137Z,39.38
2019-04-25T08:22:42.921Z,39.38
2019-04-25T08:23:36.719Z,50.63
2019-04-25T08:24:34.901Z,50.63
2019-04-25T08:25:37.697Z,33.75
2019-04-25T08:26:36.080Z,28.13
2019-04-25T08:27:34.752Z,28.13
2019-04-25T08:28:34.552Z,28.13
2019-04-25T08:29:36.331Z,22.50
2019-04-25T08:30:35.341Z,22.50
2019-04-25T08:31:34.955Z,22.50
2019-04-25T08:32:35.508Z,28.13
2019-04-25T08:33:34.547Z,33.75
2019-04-25T08:34:34.829Z,33.75
2019-04-25T08:35:34.256Z,39.38
2019-04-25T08:36:38.020Z,50.63
2019-04-25T08:37:34.443Z,67.50
2019-04-25T08:38:34.795Z,90.00
2019-04-25T08:39:36.938Z,84.38
2019-04-25T08:40:35.796Z,84.38
2019-04-25T08:41:34.845Z,78.75
2019-04-25T08:42:35.406Z,73.13
2019-04-25T08:43:34.828Z,73.13
2019-04-25T08:44:34.818Z,67.50
2019-04-25T08:45:35.705Z,67.50
2019-04-25T08:46:35.815Z,67.50
2019-04-25T08:47:35.095Z,67.50
2019-04-25T08:48:34.504Z,61.88
2019-04-25T08:49:34.929Z,45.00
2019-04-25T08:50:37.194Z,67.50
2019-04-25T08:51:34.873Z,67.50
2019-04-25T08:52:35.140Z,67.50
2019-04-25T08:53:35.144Z,61.88
2019-04-25T08:54:35.416Z,56.25
2019-04-25T08:55:34.919Z,39.38
2019-04-25T08:56:35.101Z,45.00
2019-04-25T08:57:34.122Z,61.88
2019-04-25T08:58:35.135Z,56.25
2019-04-25T08:59:40.090Z,61.88
2019-04-25T09:00:35.532Z,67.50
2019-04-25T09:01:36.503Z,73.13
2019-04-25T09:02:36.109Z,73.13
2019-04-25T09:03:35.277Z,73.13
2019-04-25T09:04:35.685Z,67.50
2019-04-25T09:05:35.173Z,61.88
2019-04-25T09:06:35.058Z,39.38
2019-04-25T09:07:35.357Z,28.13
2019-04-25T09:08:36.023Z,28.13
2019-04-25T09:09:35.384Z,22.50
2019-04-25T09:10:36.831Z,22.50
2019-04-25T09:11:34.814Z,22.50
2019-04-25T09:12:35.537Z,22.50
2019-04-25T09:13:35.848Z,28.13
2019-04-25T09:14:34.906Z,28.13
2019-04-25T09:15:35.664Z,28.13
2019-04-25T09:16:34.517Z,33.75
2019-04-25T09:17:35.484Z,33.75
2019-04-25T09:18:35.726Z,28.13
2019-04-25T09:19:35.883Z,28.13
2019-04-25T09:20:38.036Z,28.13
2019-04-25T09:21:34.174Z,22.50
2019-04-25T09:22:35.286Z,22.50
2019-04-25T09:23:34.376Z,22.50
2019-04-25T09:24:33.637Z,22.50
2019-04-25T09:25:34.505Z,22.50
2019-04-25T09:26:34.916Z,28.13
2019-04-25T09:27:34.333Z,28.13
2019-04-25T09:28:34.726Z,28.13
2019-04-25T09:29:34.234Z,28.13
2019-04-25T09:30:34.969Z,28.13
2019-04-25T09:31:34.576Z,28.13
2019-04-25T09:32:33.780Z,33.75
2019-04-25T09:33:35.171Z,28.13
2019-04-25T09:34:33.579Z,28.13
2019-04-25T09:35:33.492Z,28.13
2019-04-25T09:36:33.606Z,22.50
2019-04-25T09:37:33.579Z,22.50
2019-04-25T09:38:34.761Z,22.50
2019-04-25T09:39:33.824Z,22.50
2019-04-25T09:40:34.191Z,22.50
2019-04-25T09:41:33.592Z,28.13
2019-04-25T09:42:33.824Z,33.75
2019-04-25T09:43:33.507Z,33.75
2019-04-25T09:44:32.572Z,33.75
2019-04-25T09:45:33.501Z,33.75
2019-04-25T09:46:34.080Z,33.75
2019-04-25T09:47:33.526Z,39.38
2019-04-25T09:48:34.348Z,33.75
2019-04-25T09:49:33.899Z,28.13
2019-04-25T09:50:33.997Z,28.13
2019-04-25T09:51:33.605Z,33.75
2019-04-25T09:52:33.995Z,33.75
2019-04-25T09:53:34.001Z,33.75
2019-04-25T09:54:33.394Z,33.75
2019-04-25T09:55:33.935Z,39.38
2019-04-25T09:56:33.821Z,39.38
2019-04-25T09:57:33.482Z,39.38
2019-04-25T09:58:33.802Z,39.38
2019-04-25T09:59:33.211Z,39.38
2019-04-25T10:00:33.435Z,33.75
2019-04-25T10:01:33.763Z,28.13
2019-04-25T10:02:32.250Z,28.13
2019-04-25T10:03:33.359Z,28.13
2019-04-25T10:04:34.501Z,28.13
2019-04-25T10:05:33.825Z,22.50
2019-04-25T10:06:33.303Z,22.50
2019-04-25T10:07:32.161Z,22.50
2019-04-25T10:08:32.150Z,28.13
2019-04-25T10:09:33.657Z,28.13
2019-04-25T10:10:32.100Z,28.13
2019-04-25T10:11:33.506Z,28.13
2019-04-25T10:12:32.075Z,28.13
2019-04-25T10:13:33.601Z,28.13
2019-04-25T10:14:32.034Z,28.13
2019-04-25T10:15:32.010Z,28.13
2019-04-25T10:16:33.503Z,22.50
2019-04-25T10:17:33.384Z,22.50
2019-04-25T10:18:33.483Z,16.88
2019-04-25T10:19:31.942Z,16.88
2019-04-25T10:20:33.404Z,16.88
2019-04-25T10:21:31.907Z,16.88
2019-04-25T10:22:31.883Z,16.88
2019-04-25T10:23:31.868Z,16.88
2019-04-25T10:24:31.847Z,16.88
2019-04-25T10:25:33.328Z,16.88
2019-04-25T10:26:34.754Z,16.88
2019-04-25T10:27:31.794Z,16.88
2019-04-25T10:28:33.439Z,16.88
2019-04-25T10:29:41.280Z,16.88
2019-04-25T10:30:31.738Z,16.88
2019-04-25T10:31:31.719Z,16.88
2019-04-25T10:32:33.451Z,16.88
2019-04-25T10:33:31.701Z,16.88
2019-04-25T10:34:33.346Z,16.88
2019-04-25T10:35:34.239Z,16.88
2019-04-25T10:36:31.629Z,16.88
2019-04-25T10:37:31.612Z,16.88
2019-04-25T10:38:33.609Z,16.88
2019-04-25T10:39:31.579Z,16.88
2019-04-25T10:40:31.560Z,22.50
2019-04-25T10:41:33.653Z,22.50
2019-04-25T10:42:31.520Z,22.50
2019-04-25T10:43:31.500Z,28.13
2019-04-25T10:44:31.488Z,28.13
2019-04-25T10:45:31.471Z,33.75
2019-04-25T10:46:31.452Z,39.38
2019-04-25T10:47:31.432Z,39.38
2019-04-25T10:48:31.415Z,39.38
2019-04-25T10:49:31.397Z,39.38
2019-04-25T10:50:31.374Z,33.75
2019-04-25T10:51:31.382Z,33.75
2019-04-25T10:52:31.338Z,33.75
2019-04-25T10:53:31.321Z,39.38
2019-04-25T10:54:31.306Z,39.38
2019-04-25T10:55:31.302Z,39.38
2019-04-25T10:56:31.267Z,45.00
2019-04-25T10:57:31.250Z,50.63
2019-04-25T10:58:31.232Z,56.25
2019-04-25T10:59:31.213Z,106.88
2019-04-25T11:00:31.197Z,90.00
2019-04-25T11:01:31.180Z,90.00
2019-04-25T11:02:31.160Z,73.13
2019-04-25T11:03:31.151Z,78.75
2019-04-25T11:04:31.136Z,84.38
2019-04-25T11:05:31.117Z,78.75
2019-04-25T11:06:31.090Z,45.00
2019-04-25T11:07:31.084Z,50.63
2019-04-25T11:08:31.056Z,67.50
2019-04-25T11:09:31.037Z,61.88
2019-04-25T11:10:31.029Z,84.38
2019-04-25T11:11:31.005Z,84.38
2019-04-25T11:12:30.994Z,84.38
2019-04-25T11:13:30.974Z,67.50
2019-04-25T11:14:30.952Z,84.38
2019-04-25T11:15:30.935Z,28.13
2019-04-25T11:16:30.920Z,28.13
2019-04-25T11:17:30.903Z,28.13
2019-04-25T11:18:30.888Z,78.75
2019-04-25T11:19:30.869Z,84.38
2019-04-25T11:20:30.848Z,73.13
2019-04-25T11:21:30.832Z,61.88
2019-04-25T11:22:30.817Z,84.38
2019-04-25T11:23:30.805Z,67.50
2019-04-25T11:24:30.783Z,28.13
2019-04-25T11:25:30.777Z,45.00
2019-04-25T11:26:30.749Z,28.13
2019-04-25T11:27:30.745Z,33.75
2019-04-25T11:28:30.725Z,84.38
2019-04-25T11:29:30.701Z,84.38
2019-04-25T11:30:30.688Z,78.75
2019-04-25T11:31:30.681Z,78.75
2019-04-25T11:32:30.647Z,73.13
2019-04-25T11:33:30.633Z,78.75
2019-04-25T11:34:30.615Z,78.75
2019-04-25T11:35:30.605Z,67.50
2019-04-25T11:36:30.582Z,78.75
2019-04-25T11:37:30.562Z,78.75
2019-04-25T11:38:30.915Z,84.38
2019-04-25T11:39:30.543Z,28.13
2019-04-25T11:40:30.518Z,56.25
2019-04-25T11:41:30.497Z,95.63
2019-04-25T11:42:30.481Z,50.63
2019-04-25T11:43:30.470Z,28.13
2019-04-25T11:44:30.457Z,33.75
2019-04-25T11:45:30.439Z,45.00
2019-04-25T11:46:30.415Z,90.00
2019-04-25T11:47:30.406Z,101.25
2019-04-25T11:48:30.383Z,78.75
2019-04-25T11:49:30.388Z,33.75
2019-04-25T11:50:30.355Z,33.75
2019-04-25T11:51:30.339Z,33.75
2019-04-25T11:52:30.479Z,39.38
2019-04-25T11:53:30.309Z,39.38
2019-04-25T11:54:30.289Z,39.38
2019-04-25T11:55:30.278Z,33.75
2019-04-25T11:56:30.251Z,33.75
2019-04-25T11:57:30.245Z,28.13
2019-04-25T11:58:30.221Z,28.13
2019-04-25T11:59:30.204Z,28.13
2019-04-25T12:00:30.190Z,28.13
2019-04-25T12:01:30.180Z,28.13
2019-04-25T12:02:30.162Z,22.50
2019-04-25T12:03:30.138Z,22.50
2019-04-25T12:04:30.128Z,22.50
2019-04-25T12:05:30.104Z,22.50
2019-04-25T12:06:30.086Z,22.50
2019-04-25T12:07:30.087Z,22.50
2019-04-25T12:08:30.053Z,22.50
2019-04-25T12:09:30.040Z,22.50
2019-04-25T12:10:30.037Z,16.88
2019-04-25T12:11:30.009Z,16.88
2019-04-25T12:12:29.988Z,16.88
2019-04-25T12:13:29.969Z,16.88
2019-04-25T12:14:29.955Z,16.88
2019-04-25T12:15:29.940Z,16.88
2019-04-25T12:16:29.929Z,16.88
2019-04-25T12:17:29.908Z,16.88
2019-04-25T12:18:29.894Z,16.88
2019-04-25T12:19:35.717Z,22.50
2019-04-25T12:20:29.856Z,16.88
2019-04-25T12:21:29.838Z,16.88
2019-04-25T12:22:29.831Z,16.88
2019-04-25T12:23:29.810Z,16.88
2019-04-25T12:24:29.799Z,16.88
2019-04-25T12:25:29.781Z,16.88
2019-04-25T12:26:29.776Z,16.88
2019-04-25T12:27:29.744Z,22.50
2019-04-25T12:28:29.719Z,22.50
2019-04-25T12:29:29.716Z,22.50
2019-04-25T12:30:38.143Z,28.13
2019-04-25T12:31:29.669Z,28.13
2019-04-25T12:32:29.652Z,28.13
2019-04-25T12:33:29.642Z,22.50
2019-04-25T12:34:29.617Z,22.50
2019-04-25T12:35:29.598Z,16.88
2019-04-25T12:36:29.584Z,16.88
2019-04-25T12:37:29.574Z,16.88
2019-04-25T12:38:29.552Z,16.88
2019-04-25T12:39:29.543Z,22.50
2019-04-25T12:40:29.520Z,33.75
2019-04-25T12:41:29.495Z,39.38
2019-04-25T12:42:29.498Z,95.63
2019-04-25T12:43:29.464Z,90.00
2019-04-25T12:44:29.449Z,84.38
2019-04-25T12:45:29.427Z,78.75
2019-04-25T12:46:29.413Z,73.13
2019-04-25T12:47:29.402Z,73.13
2019-04-25T12:48:29.383Z,73.13
2019-04-25T12:49:29.371Z,73.13
2019-04-25T12:50:29.363Z,73.13
2019-04-25T12:51:29.334Z,73.13
2019-04-25T12:52:29.321Z,73.13
2019-04-25T12:53:29.298Z,73.13
2019-04-25T12:54:29.282Z,78.75
2019-04-25T12:55:29.272Z,73.13
2019-04-25T12:56:29.406Z,33.75
2019-04-25T12:57:29.231Z,33.75
2019-04-25T12:58:29.226Z,28.13
2019-04-25T12:59:29.206Z,28.13
2019-04-25T13:00:29.196Z,56.25
2019-04-25T13:01:29.169Z,78.75
2019-04-25T13:02:29.151Z,84.38
2019-04-25T13:03:29.138Z,84.38
2019-04-25T13:04:29.125Z,78.75